sensor_id;sensor_type;location;lat;lon;timestamp;pressure;altitude;pressure_sealevel;temperature;humidity
25350;BME280;13302;48.796;11.978;2023-05-31T00:00:23;97241.53;;;16.68;24.25
25350;BME280;13302;48.796;11.978;2023-05-31T00:03:10;97249.34;;;16.55;24.32
25350;BME280;13302;48.796;11.978;2023-05-31T00:05:57;97249.25;;;16.44;24.38
25350;BME280;13302;48.796;11.978;2023-05-31T00:08:44;97251.13;;;16.37;24.17
25350;BME280;13302;48.796;11.978;2023-05-31T00:11:31;97245.06;;;16.31;24.45
25350;BME280;13302;48.796;11.978;2023-05-31T00:14:18;97248.97;;;16.27;24.25
25350;BME280;13302;48.796;11.978;2023-05-31T00:17:05;97247.00;;;16.27;24.40
25350;BME280;13302;48.796;11.978;2023-05-31T00:20:12;97248.56;;;16.25;24.20
25350;BME280;13302;48.796;11.978;2023-05-31T00:22:59;97248.56;;;16.25;24.41
25350;BME280;13302;48.796;11.978;2023-05-31T00:25:46;97249.31;;;16.22;24.42
25350;BME280;13302;48.796;11.978;2023-05-31T00:28:34;97242.88;;;16.18;24.46
25350;BME280;13302;48.796;11.978;2023-05-31T00:31:21;97248.44;;;16.18;24.54
25350;BME280;13302;48.796;11.978;2023-05-31T00:34:08;97251.66;;;16.16;24.68
25350;BME280;13302;48.796;11.978;2023-05-31T00:36:57;97258.81;;;16.17;24.71
25350;BME280;13302;48.796;11.978;2023-05-31T00:39:44;97258.75;;;16.14;24.51
25350;BME280;13302;48.796;11.978;2023-05-31T00:42:31;97258.34;;;16.12;24.66
25350;BME280;13302;48.796;11.978;2023-05-31T00:45:18;97253.13;;;16.10;24.74
25350;BME280;13302;48.796;11.978;2023-05-31T00:48:06;97245.16;;;16.08;25.03
25350;BME280;13302;48.796;11.978;2023-05-31T00:50:53;97248.31;;;16.07;24.84
25350;BME280;13302;48.796;11.978;2023-05-31T00:53:40;97247.88;;;16.05;24.82
25350;BME280;13302;48.796;11.978;2023-05-31T00:56:27;97239.09;;;16.03;25.01
25350;BME280;13302;48.796;11.978;2023-05-31T00:59:15;97243.47;;;16.00;25.09
25350;BME280;13302;48.796;11.978;2023-05-31T01:02:03;97246.63;;;15.99;25.05
25350;BME280;13302;48.796;11.978;2023-05-31T01:04:53;97236.22;;;15.96;25.22
25350;BME280;13302;48.796;11.978;2023-05-31T01:07:43;97235.78;;;15.94;24.91
25350;BME280;13302;48.796;11.978;2023-05-31T01:10:31;97232.97;;;15.90;24.93
25350;BME280;13302;48.796;11.978;2023-05-31T01:13:24;97235.25;;;15.85;25.19
25350;BME280;13302;48.796;11.978;2023-05-31T01:16:21;97236.47;;;15.84;24.98
25350;BME280;13302;48.796;11.978;2023-05-31T01:19:24;97238.41;;;15.80;25.23
25350;BME280;13302;48.796;11.978;2023-05-31T01:22:25;97231.19;;;15.79;25.07
25350;BME280;13302;48.796;11.978;2023-05-31T01:25:26;97239.94;;;15.77;25.11
25350;BME280;13302;48.796;11.978;2023-05-31T01:28:14;97234.75;;;15.76;25.30
25350;BME280;13302;48.796;11.978;2023-05-31T01:31:07;97237.91;;;15.74;25.47
25350;BME280;13302;48.796;11.978;2023-05-31T01:33:55;97240.25;;;15.72;25.46
25350;BME280;13302;48.796;11.978;2023-05-31T01:36:43;97237.41;;;15.69;25.32
25350;BME280;13302;48.796;11.978;2023-05-31T01:39:30;97238.94;;;15.66;25.48
25350;BME280;13302;48.796;11.978;2023-05-31T01:42:20;97248.47;;;15.65;25.51
25350;BME280;13302;48.796;11.978;2023-05-31T01:45:09;97233.31;;;15.62;25.79
25350;BME280;13302;48.796;11.978;2023-05-31T01:48:03;97239.25;;;15.61;25.97
25350;BME280;13302;48.796;11.978;2023-05-31T01:50:52;97235.66;;;15.60;25.64
25350;BME280;13302;48.796;11.978;2023-05-31T01:53:40;97241.25;;;15.60;26.15
25350;BME280;13302;48.796;11.978;2023-05-31T01:56:28;97235.25;;;15.58;26.04
25350;BME280;13302;48.796;11.978;2023-05-31T01:59:17;97243.97;;;15.57;26.18
25350;BME280;13302;48.796;11.978;2023-05-31T02:02:05;97241.50;;;15.52;26.55
25350;BME280;13302;48.796;11.978;2023-05-31T02:05:06;97246.97;;;15.45;26.37
25350;BME280;13302;48.796;11.978;2023-05-31T02:07:58;97256.84;;;15.39;26.53
25350;BME280;13302;48.796;11.978;2023-05-31T02:10:45;97250.78;;;15.33;26.27
25350;BME280;13302;48.796;11.978;2023-05-31T02:13:33;97243.88;;;15.27;26.20
25350;BME280;13302;48.796;11.978;2023-05-31T02:16:20;97240.63;;;15.22;26.35
25350;BME280;13302;48.796;11.978;2023-05-31T02:19:08;97246.50;;;15.16;26.49
25350;BME280;13302;48.796;11.978;2023-05-31T02:21:55;97247.25;;;15.13;26.85
25350;BME280;13302;48.796;11.978;2023-05-31T02:24:42;97252.78;;;15.10;26.58
25350;BME280;13302;48.796;11.978;2023-05-31T02:27:30;97248.31;;;15.05;26.88
25350;BME280;13302;48.796;11.978;2023-05-31T02:30:17;97247.44;;;15.01;26.69
25350;BME280;13302;48.796;11.978;2023-05-31T02:33:04;97246.56;;;14.97;26.61
25350;BME280;13302;48.796;11.978;2023-05-31T02:35:53;97255.22;;;14.92;26.92
25350;BME280;13302;48.796;11.978;2023-05-31T02:38:40;97251.16;;;14.90;26.97
25350;BME280;13302;48.796;11.978;2023-05-31T02:41:27;97245.53;;;14.86;27.05
25350;BME280;13302;48.796;11.978;2023-05-31T02:44:14;97253.88;;;14.86;26.90
25350;BME280;13302;48.796;11.978;2023-05-31T02:47:01;97252.72;;;14.87;26.81
25350;BME280;13302;48.796;11.978;2023-05-31T02:49:49;97255.50;;;14.87;27.50
25350;BME280;13302;48.796;11.978;2023-05-31T02:52:37;97257.13;;;14.88;27.07
25350;BME280;13302;48.796;11.978;2023-05-31T02:55:50;97259.09;;;14.88;27.16
25350;BME280;13302;48.796;11.978;2023-05-31T02:58:43;97256.66;;;14.86;27.08
25350;BME280;13302;48.796;11.978;2023-05-31T03:01:51;97253.47;;;14.84;27.42
25350;BME280;13302;48.796;11.978;2023-05-31T03:05:05;97253.00;;;14.82;27.42
25350;BME280;13302;48.796;11.978;2023-05-31T03:07:57;97254.97;;;14.82;27.45
25350;BME280;13302;48.796;11.978;2023-05-31T03:10:45;97249.81;;;14.80;27.22
25350;BME280;13302;48.796;11.978;2023-05-31T03:13:34;97252.59;;;14.80;27.56
25350;BME280;13302;48.796;11.978;2023-05-31T03:16:22;97253.69;;;14.76;27.41
25350;BME280;13302;48.796;11.978;2023-05-31T03:19:10;97255.25;;;14.73;27.46
25350;BME280;13302;48.796;11.978;2023-05-31T03:22:00;97257.59;;;14.71;27.46
25350;BME280;13302;48.796;11.978;2023-05-31T03:24:50;97255.53;;;14.68;27.78
25350;BME280;13302;48.796;11.978;2023-05-31T03:27:38;97256.25;;;14.65;27.80
25350;BME280;13302;48.796;11.978;2023-05-31T03:30:25;97251.44;;;14.62;27.62
25350;BME280;13302;48.796;11.978;2023-05-31T03:33:17;97253.81;;;14.60;27.81
25350;BME280;13302;48.796;11.978;2023-05-31T03:36:04;97247.44;;;14.59;27.70
25350;BME280;13302;48.796;11.978;2023-05-31T03:38:51;97253.00;;;14.59;27.71
25350;BME280;13302;48.796;11.978;2023-05-31T03:41:38;97251.03;;;14.60;28.05
25350;BME280;13302;48.796;11.978;2023-05-31T03:44:25;97256.53;;;14.56;27.95
25350;BME280;13302;48.796;11.978;2023-05-31T03:47:13;97263.25;;;14.55;27.71
25350;BME280;13302;48.796;11.978;2023-05-31T03:50:00;97263.19;;;14.52;27.88
25350;BME280;13302;48.796;11.978;2023-05-31T03:52:48;97268.28;;;14.50;28.01
25350;BME280;13302;48.796;11.978;2023-05-31T03:55:35;97263.13;;;14.48;27.98
25350;BME280;13302;48.796;11.978;2023-05-31T03:58:23;97271.81;;;14.47;28.31
25350;BME280;13302;48.796;11.978;2023-05-31T04:01:10;97271.00;;;14.46;28.40
25350;BME280;13302;48.796;11.978;2023-05-31T04:03:57;97267.41;;;14.46;28.55
25350;BME280;13302;48.796;11.978;2023-05-31T04:06:44;97266.25;;;14.47;28.38
25350;BME280;13302;48.796;11.978;2023-05-31T04:09:31;97265.78;;;14.45;28.64
25350;BME280;13302;48.796;11.978;2023-05-31T04:12:18;97269.38;;;14.45;28.59
25350;BME280;13302;48.796;11.978;2023-05-31T04:15:06;97265.03;;;14.44;29.22
25350;BME280;13302;48.796;11.978;2023-05-31T04:17:54;97263.00;;;14.45;29.17
25350;BME280;13302;48.796;11.978;2023-05-31T04:20:42;97259.81;;;14.43;28.96
25350;BME280;13302;48.796;11.978;2023-05-31T04:23:30;97257.38;;;14.41;28.99
25350;BME280;13302;48.796;11.978;2023-05-31T04:26:17;97259.81;;;14.43;29.09
25350;BME280;13302;48.796;11.978;2023-05-31T04:29:06;97267.00;;;14.44;29.01
25350;BME280;13302;48.796;11.978;2023-05-31T04:31:53;97269.78;;;14.44;29.24
25350;BME280;13302;48.796;11.978;2023-05-31T04:34:42;97262.25;;;14.44;29.25
25350;BME280;13302;48.796;11.978;2023-05-31T04:37:30;97259.88;;;14.46;29.53
25350;BME280;13302;48.796;11.978;2023-05-31T04:40:19;97261.09;;;14.49;29.39
25350;BME280;13302;48.796;11.978;2023-05-31T04:43:07;97257.97;;;14.50;30.13
25350;BME280;13302;48.796;11.978;2023-05-31T04:45:55;97260.81;;;14.54;30.18
25350;BME280;13302;48.796;11.978;2023-05-31T04:48:42;97260.53;;;14.59;29.85
25350;BME280;13302;48.796;11.978;2023-05-31T04:51:29;97262.56;;;14.62;30.21
25350;BME280;13302;48.796;11.978;2023-05-31T04:54:18;97264.25;;;14.66;30.08
25350;BME280;13302;48.796;11.978;2023-05-31T04:57:06;97272.72;;;14.73;29.55
25350;BME280;13302;48.796;11.978;2023-05-31T04:59:54;97267.75;;;14.83;29.59
25350;BME280;13302;48.796;11.978;2023-05-31T05:02:44;97261.94;;;14.91;29.41
25350;BME280;13302;48.796;11.978;2023-05-31T05:05:32;97273.31;;;15.02;29.26
25350;BME280;13302;48.796;11.978;2023-05-31T05:08:19;97280.22;;;15.11;29.13
25350;BME280;13302;48.796;11.978;2023-05-31T05:11:06;97277.19;;;15.20;28.94
25350;BME280;13302;48.796;11.978;2023-05-31T05:13:53;97277.75;;;15.29;29.03
25350;BME280;13302;48.796;11.978;2023-05-31T05:16:42;97279.50;;;15.37;28.95
25350;BME280;13302;48.796;11.978;2023-05-31T05:19:29;97279.59;;;15.44;28.87
25350;BME280;13302;48.796;11.978;2023-05-31T05:22:16;97281.72;;;15.51;28.67
25350;BME280;13302;48.796;11.978;2023-05-31T05:25:04;97279.03;;;15.58;29.10
25350;BME280;13302;48.796;11.978;2023-05-31T05:27:52;97284.72;;;15.65;28.95
25350;BME280;13302;48.796;11.978;2023-05-31T05:30:39;97278.38;;;15.68;28.72
25350;BME280;13302;48.796;11.978;2023-05-31T05:33:26;97275.75;;;15.75;28.92
25350;BME280;13302;48.796;11.978;2023-05-31T05:36:15;97281.38;;;15.79;28.71
25350;BME280;13302;48.796;11.978;2023-05-31T05:39:07;97283.47;;;15.85;28.49
25350;BME280;13302;48.796;11.978;2023-05-31T05:41:54;97294.72;;;15.92;28.83
25350;BME280;13302;48.796;11.978;2023-05-31T05:44:41;97293.59;;;15.97;28.40
25350;BME280;13302;48.796;11.978;2023-05-31T05:47:28;97296.88;;;16.02;28.49
25350;BME280;13302;48.796;11.978;2023-05-31T05:50:16;97299.69;;;16.06;28.56
25350;BME280;13302;48.796;11.978;2023-05-31T05:53:03;97301.00;;;16.12;28.56
25350;BME280;13302;48.796;11.978;2023-05-31T05:55:52;97300.66;;;16.17;28.64
25350;BME280;13302;48.796;11.978;2023-05-31T05:58:42;97299.97;;;16.24;28.50
25350;BME280;13302;48.796;11.978;2023-05-31T06:01:48;97310.78;;;16.29;28.65
25350;BME280;13302;48.796;11.978;2023-05-31T06:04:37;97314.03;;;16.34;28.46
25350;BME280;13302;48.796;11.978;2023-05-31T06:07:24;97318.13;;;16.40;28.47
25350;BME280;13302;48.796;11.978;2023-05-31T06:10:11;97323.41;;;16.45;28.55
25350;BME280;13302;48.796;11.978;2023-05-31T06:12:58;97303.53;;;16.50;28.56
25350;BME280;13302;48.796;11.978;2023-05-31T06:15:46;97304.00;;;16.56;28.21
25350;BME280;13302;48.796;11.978;2023-05-31T06:18:33;97306.81;;;16.60;27.96
25350;BME280;13302;48.796;11.978;2023-05-31T06:21:22;97310.47;;;16.64;28.03
25350;BME280;13302;48.796;11.978;2023-05-31T06:24:10;97307.34;;;16.69;28.14
25350;BME280;13302;48.796;11.978;2023-05-31T06:26:57;97309.38;;;16.72;27.87
25350;BME280;13302;48.796;11.978;2023-05-31T06:29:48;97311.38;;;16.75;27.70
25350;BME280;13302;48.796;11.978;2023-05-31T06:32:48;97311.81;;;16.77;27.60
25350;BME280;13302;48.796;11.978;2023-05-31T06:35:42;97308.66;;;16.78;27.67
25350;BME280;13302;48.796;11.978;2023-05-31T06:38:31;97309.09;;;16.84;27.36
25350;BME280;13302;48.796;11.978;2023-05-31T06:41:18;97311.94;;;16.87;27.52
25350;BME280;13302;48.796;11.978;2023-05-31T06:44:05;97301.63;;;16.91;27.69
25350;BME280;13302;48.796;11.978;2023-05-31T06:47:01;97304.47;;;16.95;27.55
25350;BME280;13302;48.796;11.978;2023-05-31T06:50:11;97301.72;;;16.98;27.37
25350;BME280;13302;48.796;11.978;2023-05-31T06:53:22;97299.75;;;17.03;27.32
25350;BME280;13302;48.796;11.978;2023-05-31T06:56:15;97301.78;;;17.06;26.98
25350;BME280;13302;48.796;11.978;2023-05-31T06:59:02;97299.81;;;17.10;27.35
25350;BME280;13302;48.796;11.978;2023-05-31T07:01:49;97293.88;;;17.11;26.91
25350;BME280;13302;48.796;11.978;2023-05-31T07:04:39;97297.53;;;17.15;26.75
25350;BME280;13302;48.796;11.978;2023-05-31T07:07:26;97301.94;;;17.20;26.90
25350;BME280;13302;48.796;11.978;2023-05-31T07:10:14;97293.63;;;17.23;26.94
25350;BME280;13302;48.796;11.978;2023-05-31T07:13:01;97300.03;;;17.27;26.88
25350;BME280;13302;48.796;11.978;2023-05-31T07:15:48;97297.28;;;17.31;26.99
25350;BME280;13302;48.796;11.978;2023-05-31T07:18:35;97293.31;;;17.35;26.93
25350;BME280;13302;48.796;11.978;2023-05-31T07:21:22;97298.94;;;17.39;26.79
25350;BME280;13302;48.796;11.978;2023-05-31T07:24:09;97302.56;;;17.43;26.89
25350;BME280;13302;48.796;11.978;2023-05-31T07:26:56;97288.63;;;17.47;26.82
25350;BME280;13302;48.796;11.978;2023-05-31T07:29:43;97293.06;;;17.51;26.76
25350;BME280;13302;48.796;11.978;2023-05-31T07:32:30;97291.47;;;17.54;26.63
25350;BME280;13302;48.796;11.978;2023-05-31T07:35:18;97299.88;;;17.57;26.63
25350;BME280;13302;48.796;11.978;2023-05-31T07:38:05;97290.31;;;17.58;26.66
25350;BME280;13302;48.796;11.978;2023-05-31T07:40:52;97296.34;;;17.60;26.50
25350;BME280;13302;48.796;11.978;2023-05-31T07:43:40;97297.53;;;17.63;26.40
25350;BME280;13302;48.796;11.978;2023-05-31T07:46:27;97295.97;;;17.65;26.64
25350;BME280;13302;48.796;11.978;2023-05-31T07:49:14;97295.22;;;17.68;26.52
25350;BME280;13302;48.796;11.978;2023-05-31T07:52:02;97297.22;;;17.71;26.27
25350;BME280;13302;48.796;11.978;2023-05-31T07:54:51;97283.63;;;17.73;26.32
25350;BME280;13302;48.796;11.978;2023-05-31T07:57:38;97282.44;;;17.74;26.36
25350;BME280;13302;48.796;11.978;2023-05-31T08:00:25;97274.09;;;17.78;26.51
25350;BME280;13302;48.796;11.978;2023-05-31T08:03:16;97274.09;;;17.81;26.61
25350;BME280;13302;48.796;11.978;2023-05-31T08:06:03;97275.41;;;17.87;26.58
25350;BME280;13302;48.796;11.978;2023-05-31T08:08:51;97271.81;;;17.90;26.52
25350;BME280;13302;48.796;11.978;2023-05-31T08:11:38;97260.63;;;17.94;26.13
25350;BME280;13302;48.796;11.978;2023-05-31T08:14:25;97267.47;;;17.97;26.06
25350;BME280;13302;48.796;11.978;2023-05-31T08:17:12;97275.06;;;18.00;26.44
25350;BME280;13302;48.796;11.978;2023-05-31T08:19:59;97267.09;;;18.02;26.25
25350;BME280;13302;48.796;11.978;2023-05-31T08:22:47;97260.72;;;18.05;26.01
25350;BME280;13302;48.796;11.978;2023-05-31T08:25:34;97264.31;;;18.05;26.16
25350;BME280;13302;48.796;11.978;2023-05-31T08:28:21;97261.94;;;18.07;26.39
25350;BME280;13302;48.796;11.978;2023-05-31T08:31:08;97259.16;;;18.11;26.44
25350;BME280;13302;48.796;11.978;2023-05-31T08:33:57;97261.97;;;18.14;26.26
25350;BME280;13302;48.796;11.978;2023-05-31T08:36:45;97254.00;;;18.20;26.61
25350;BME280;13302;48.796;11.978;2023-05-31T08:39:32;97261.22;;;18.24;26.57
25350;BME280;13302;48.796;11.978;2023-05-31T08:42:24;97255.63;;;18.28;26.35
25350;BME280;13302;48.796;11.978;2023-05-31T08:45:12;97262.47;;;18.34;26.64
25350;BME280;13302;48.796;11.978;2023-05-31T08:48:24;97244.09;;;18.36;26.61
25350;BME280;13302;48.796;11.978;2023-05-31T08:51:13;97252.13;;;18.42;26.52
25350;BME280;13302;48.796;11.978;2023-05-31T08:54:02;97255.72;;;18.46;26.52
25350;BME280;13302;48.796;11.978;2023-05-31T08:56:50;97246.16;;;18.50;26.08
25350;BME280;13302;48.796;11.978;2023-05-31T08:59:37;97255.41;;;18.54;26.26
25350;BME280;13302;48.796;11.978;2023-05-31T09:02:25;97249.81;;;18.58;26.26
25350;BME280;13302;48.796;11.978;2023-05-31T09:05:13;97249.81;;;18.61;26.04
25350;BME280;13302;48.796;11.978;2023-05-31T09:08:01;97254.63;;;18.64;25.91
25350;BME280;13302;48.796;11.978;2023-05-31T09:10:49;97249.81;;;18.68;25.82
25350;BME280;13302;48.796;11.978;2023-05-31T09:13:36;97254.66;;;18.71;25.81
25350;BME280;13302;48.796;11.978;2023-05-31T09:16:23;97251.06;;;18.74;25.73
25350;BME280;13302;48.796;11.978;2023-05-31T09:19:11;97250.25;;;18.77;25.67
25350;BME280;13302;48.796;11.978;2023-05-31T09:21:58;97248.66;;;18.80;26.21
25350;BME280;13302;48.796;11.978;2023-05-31T09:24:49;97247.09;;;18.83;25.84
25350;BME280;13302;48.796;11.978;2023-05-31T09:27:38;97240.69;;;18.86;25.77
25350;BME280;13302;48.796;11.978;2023-05-31T09:30:25;97248.28;;;18.89;25.77
25350;BME280;13302;48.796;11.978;2023-05-31T09:33:13;97234.69;;;18.91;25.86
25350;BME280;13302;48.796;11.978;2023-05-31T09:36:00;97236.69;;;18.94;26.09
25350;BME280;13302;48.796;11.978;2023-05-31T09:38:48;97241.50;;;18.97;25.85
25350;BME280;13302;48.796;11.978;2023-05-31T09:41:36;97233.91;;;19.01;25.75
25350;BME280;13302;48.796;11.978;2023-05-31T09:44:27;97221.09;;;19.03;25.97
25350;BME280;13302;48.796;11.978;2023-05-31T09:47:22;97224.28;;;19.05;25.78
25350;BME280;13302;48.796;11.978;2023-05-31T09:50:10;97219.50;;;19.09;25.78
25350;BME280;13302;48.796;11.978;2023-05-31T09:52:58;97220.31;;;19.13;26.04
25350;BME280;13302;48.796;11.978;2023-05-31T09:55:45;97218.72;;;19.16;25.75
25350;BME280;13302;48.796;11.978;2023-05-31T09:58:32;97216.75;;;19.20;25.78
25350;BME280;13302;48.796;11.978;2023-05-31T10:01:19;97221.16;;;19.24;26.13
25350;BME280;13302;48.796;11.978;2023-05-31T10:04:06;97208.34;;;19.27;26.05
25350;BME280;13302;48.796;11.978;2023-05-31T10:06:53;97219.53;;;19.31;26.19
25350;BME280;13302;48.796;11.978;2023-05-31T10:09:41;97205.53;;;19.34;25.95
25350;BME280;13302;48.796;11.978;2023-05-31T10:12:29;97209.94;;;19.39;25.84
25350;BME280;13302;48.796;11.978;2023-05-31T10:15:23;97189.91;;;19.40;25.79
25350;BME280;13302;48.796;11.978;2023-05-31T10:18:13;97197.53;;;19.43;25.68
25350;BME280;13302;48.796;11.978;2023-05-31T10:21:24;97208.34;;;19.45;25.69
25350;BME280;13302;48.796;11.978;2023-05-31T10:24:23;97204.72;;;19.48;25.77
25350;BME280;13302;48.796;11.978;2023-05-31T10:27:29;97195.13;;;19.52;25.70
25350;BME280;13302;48.796;11.978;2023-05-31T10:30:21;97196.31;;;19.55;25.62
25350;BME280;13302;48.796;11.978;2023-05-31T10:33:15;97195.91;;;19.60;25.78
25350;BME280;13302;48.796;11.978;2023-05-31T10:36:04;97199.50;;;19.64;25.69
25350;BME280;13302;48.796;11.978;2023-05-31T10:38:59;97197.50;;;19.64;25.46
25350;BME280;13302;48.796;11.978;2023-05-31T10:41:55;97195.50;;;19.68;25.38
25350;BME280;13302;48.796;11.978;2023-05-31T10:44:59;97197.47;;;19.71;25.24
25350;BME280;13302;48.796;11.978;2023-05-31T10:48:14;97198.28;;;19.76;25.53
25350;BME280;13302;48.796;11.978;2023-05-31T10:51:06;97183.03;;;19.80;25.30
25350;BME280;13302;48.796;11.978;2023-05-31T10:53:54;97184.66;;;19.85;24.98
25350;BME280;13302;48.796;11.978;2023-05-31T10:56:54;97175.84;;;19.86;25.38
25350;BME280;13302;48.796;11.978;2023-05-31T10:59:44;97176.66;;;19.90;25.12
25350;BME280;13302;48.796;11.978;2023-05-31T11:02:31;97170.22;;;19.93;25.15
25350;BME280;13302;48.796;11.978;2023-05-31T11:05:20;97166.59;;;19.96;24.88
25350;BME280;13302;48.796;11.978;2023-05-31T11:08:12;97171.00;;;19.97;25.22
25350;BME280;13302;48.796;11.978;2023-05-31T11:11:26;97172.19;;;20.00;25.40
25350;BME280;13302;48.796;11.978;2023-05-31T11:14:27;97166.56;;;20.03;25.00
25350;BME280;13302;48.796;11.978;2023-05-31T11:17:19;97167.78;;;20.06;25.39
25350;BME280;13302;48.796;11.978;2023-05-31T11:20:07;97160.13;;;20.10;25.43
25350;BME280;13302;48.796;11.978;2023-05-31T11:26:16;97160.91;;;20.14;25.33
25350;BME280;13302;48.796;11.978;2023-05-31T11:29:04;97154.09;;;20.18;25.46
25350;BME280;13302;48.796;11.978;2023-05-31T11:34:55;97151.63;;;20.24;25.19
25350;BME280;13302;48.796;11.978;2023-05-31T11:37:43;97150.41;;;20.29;25.00
25350;BME280;13302;48.796;11.978;2023-05-31T11:40:31;97158.03;;;20.32;25.42
25350;BME280;13302;48.796;11.978;2023-05-31T11:43:23;97145.56;;;20.33;25.51
25350;BME280;13302;48.796;11.978;2023-05-31T11:46:13;97145.97;;;20.38;25.29
25350;BME280;13302;48.796;11.978;2023-05-31T11:49:00;97139.53;;;20.41;25.23
25350;BME280;13302;48.796;11.978;2023-05-31T11:51:48;97143.53;;;20.44;25.02
25350;BME280;13302;48.796;11.978;2023-05-31T11:54:35;97141.53;;;20.48;25.13
25350;BME280;13302;48.796;11.978;2023-05-31T11:57:22;97140.72;;;20.51;25.08
25350;BME280;13302;48.796;11.978;2023-05-31T12:00:10;97130.66;;;20.53;25.16
25350;BME280;13302;48.796;11.978;2023-05-31T12:02:58;97129.84;;;20.56;25.12
25350;BME280;13302;48.796;11.978;2023-05-31T12:05:56;97124.59;;;20.58;25.10
25350;BME280;13302;48.796;11.978;2023-05-31T12:08:43;97116.56;;;20.64;25.35
25350;BME280;13302;48.796;11.978;2023-05-31T12:11:30;97124.97;;;20.68;25.11
25350;BME280;13302;48.796;11.978;2023-05-31T12:14:17;97130.16;;;20.69;24.99
25350;BME280;13302;48.796;11.978;2023-05-31T12:17:05;97122.50;;;20.73;24.85
25350;BME280;13302;48.796;11.978;2023-05-31T12:19:52;97111.66;;;20.75;24.87
25350;BME280;13302;48.796;11.978;2023-05-31T12:22:40;97115.63;;;20.78;24.78
25350;BME280;13302;48.796;11.978;2023-05-31T12:25:27;97110.41;;;20.80;24.98
25350;BME280;13302;48.796;11.978;2023-05-31T12:28:20;97115.59;;;20.81;24.74
25350;BME280;13302;48.796;11.978;2023-05-31T12:31:08;97118.81;;;20.83;24.74
25350;BME280;13302;48.796;11.978;2023-05-31T12:34:05;97101.56;;;20.85;24.62
25350;BME280;13302;48.796;11.978;2023-05-31T12:36:52;97105.13;;;20.89;24.48
25350;BME280;13302;48.796;11.978;2023-05-31T12:39:39;97099.88;;;20.91;24.56
25350;BME280;13302;48.796;11.978;2023-05-31T12:42:27;97105.50;;;20.91;24.83
25350;BME280;13302;48.796;11.978;2023-05-31T12:45:17;97102.28;;;20.92;24.63
25350;BME280;13302;48.796;11.978;2023-05-31T12:48:07;97095.03;;;20.95;24.59
25350;BME280;13302;48.796;11.978;2023-05-31T12:50:57;97102.63;;;20.98;24.62
25350;BME280;13302;48.796;11.978;2023-05-31T12:53:45;97091.78;;;21.00;24.47
25350;BME280;13302;48.796;11.978;2023-05-31T12:56:32;97095.78;;;21.02;24.29
25350;BME280;13302;48.796;11.978;2023-05-31T12:59:19;97099.38;;;21.03;24.29
25350;BME280;13302;48.796;11.978;2023-05-31T13:02:07;97096.16;;;21.04;24.28
25350;BME280;13302;48.796;11.978;2023-05-31T13:04:54;97087.72;;;21.04;23.99
25350;BME280;13302;48.796;11.978;2023-05-31T13:07:44;97091.34;;;21.05;24.18
25350;BME280;13302;48.796;11.978;2023-05-31T13:10:33;97086.91;;;21.07;24.09
25350;BME280;13302;48.796;11.978;2023-05-31T13:13:22;97090.13;;;21.10;24.25
25350;BME280;13302;48.796;11.978;2023-05-31T13:16:09;97084.88;;;21.12;24.20
25350;BME280;13302;48.796;11.978;2023-05-31T13:18:59;97082.47;;;21.14;23.82
25350;BME280;13302;48.796;11.978;2023-05-31T13:21:46;97080.03;;;21.16;24.09
25350;BME280;13302;48.796;11.978;2023-05-31T13:24:33;97079.63;;;21.17;23.78
25350;BME280;13302;48.796;11.978;2023-05-31T13:27:21;97075.97;;;21.20;23.84
25350;BME280;13302;48.796;11.978;2023-05-31T13:30:08;97071.94;;;21.21;23.92
25350;BME280;13302;48.796;11.978;2023-05-31T13:32:56;97070.31;;;21.24;23.74
25350;BME280;13302;48.796;11.978;2023-05-31T13:35:43;97062.25;;;21.26;23.72
25350;BME280;13302;48.796;11.978;2023-05-31T13:38:30;97066.25;;;21.28;24.04
25350;BME280;13302;48.796;11.978;2023-05-31T13:41:18;97053.78;;;21.29;23.94
25350;BME280;13302;48.796;11.978;2023-05-31T13:44:05;97046.53;;;21.32;23.94
25350;BME280;13302;48.796;11.978;2023-05-31T13:46:52;97045.31;;;21.33;23.74
25350;BME280;13302;48.796;11.978;2023-05-31T13:49:39;97044.09;;;21.34;23.80
25350;BME280;13302;48.796;11.978;2023-05-31T13:52:26;97047.28;;;21.36;23.65
25350;BME280;13302;48.796;11.978;2023-05-31T13:55:13;97043.63;;;21.39;23.45
25350;BME280;13302;48.796;11.978;2023-05-31T13:58:00;97032.38;;;21.39;23.79
25350;BME280;13302;48.796;11.978;2023-05-31T14:00:47;97027.13;;;21.41;23.58
25350;BME280;13302;48.796;11.978;2023-05-31T14:03:46;97031.56;;;21.42;23.38
25350;BME280;13302;48.796;11.978;2023-05-31T14:06:33;97023.47;;;21.44;23.30
25350;BME280;13302;48.796;11.978;2023-05-31T14:09:20;97031.50;;;21.45;23.48
25350;BME280;13302;48.796;11.978;2023-05-31T14:12:07;97037.94;;;21.46;23.42
25350;BME280;13302;48.796;11.978;2023-05-31T14:14:55;97031.47;;;21.49;23.33
25350;BME280;13302;48.796;11.978;2023-05-31T14:17:42;97021.81;;;21.50;23.39
25350;BME280;13302;48.796;11.978;2023-05-31T14:20:30;97019.38;;;21.52;23.55
25350;BME280;13302;48.796;11.978;2023-05-31T14:23:17;97014.94;;;21.54;23.30
25350;BME280;13302;48.796;11.978;2023-05-31T14:26:04;97012.13;;;21.54;23.43
25350;BME280;13302;48.796;11.978;2023-05-31T14:28:51;97018.91;;;21.57;23.52
25350;BME280;13302;48.796;11.978;2023-05-31T14:31:38;97012.88;;;21.59;23.52
25350;BME280;13302;48.796;11.978;2023-05-31T14:34:25;97012.44;;;21.60;23.28
25350;BME280;13302;48.796;11.978;2023-05-31T14:37:13;97003.59;;;21.62;23.54
25350;BME280;13302;48.796;11.978;2023-05-31T14:40:12;97008.38;;;21.65;23.30
25350;BME280;13302;48.796;11.978;2023-05-31T14:42:59;97001.53;;;21.66;23.56
25350;BME280;13302;48.796;11.978;2023-05-31T14:45:46;96999.50;;;21.66;23.43
25350;BME280;13302;48.796;11.978;2023-05-31T14:48:34;97000.31;;;21.67;22.96
25350;BME280;13302;48.796;11.978;2023-05-31T14:51:21;97007.50;;;21.68;22.92